Hatton, North Dakota
Current Conditions -  °F | °C
As of 4:58 AM on Monday 22 Dec 2014 (Local Time) from KRDR Reporting Station
Haze Haze  
Wind Chill: 28°   Ceiling: 300
Heat Index: 34°   Visibility: 5mi
Dew Point: 34°   Wind: 6mph
Humidity: 100%   Direction: 120°ESE
Pressure: 29.53"   Gusts: NA
Location:  47.64°N, 97.45°W
Report Text: KRDR 221058Z AUTO 12005KT 5SM R35/5000FT BR OVC003 01/01 A2953 RMK AO2 SLP015 T00090009 $
Loading
Personal Weather Stations






























Interactive Weather Map New forecast layout! Learn more

10-Day Weather Forecast

Advertisements
Track Severe Weather on mobile